createdAt,value
2023-02-03T00:04:34.841Z,5.57
2023-02-03T00:07:04.077Z,6.82
2023-02-03T00:09:33.290Z,8.70
2023-02-03T00:12:02.268Z,8.52
2023-02-03T00:14:31.468Z,6.63
2023-02-03T00:17:01.806Z,6.45
2023-02-03T00:19:30.994Z,6.88
2023-02-03T00:21:59.971Z,7.75
2023-02-03T00:24:29.499Z,6.85
2023-02-03T00:26:58.422Z,6.75
2023-02-03T00:29:27.723Z,6.97
2023-02-03T00:31:59.021Z,10.63
2023-02-03T00:34:31.793Z,13.20
2023-02-03T00:37:01.038Z,11.60
2023-02-03T00:39:30.187Z,12.48
2023-02-03T00:41:59.177Z,7.60
2023-02-03T00:44:28.455Z,6.75
2023-02-03T00:46:57.449Z,5.38
2023-02-03T00:49:26.787Z,4.97
2023-02-03T00:51:57.131Z,4.70
2023-02-03T00:54:26.401Z,4.53
2023-02-03T00:56:55.226Z,4.72
2023-02-03T00:59:24.528Z,4.43
2023-02-03T01:01:53.446Z,4.70
2023-02-03T01:04:22.711Z,5.00
2023-02-03T01:06:51.705Z,4.78
2023-02-03T01:09:23.061Z,5.28
2023-02-03T01:11:52.121Z,5.38
2023-02-03T01:14:21.295Z,5.32
2023-02-03T01:16:50.252Z,5.18
2023-02-03T01:19:19.984Z,5.00
2023-02-03T01:21:48.891Z,4.93
2023-02-03T01:24:18.095Z,4.18
2023-02-03T01:26:48.431Z,4.85
2023-02-03T01:29:17.631Z,5.60
2023-02-03T01:31:46.568Z,6.05
2023-02-03T01:34:18.544Z,5.78
2023-02-03T01:36:47.735Z,5.70
2023-02-03T01:39:16.954Z,5.50
2023-02-03T01:41:49.397Z,4.97
2023-02-03T01:44:41.668Z,4.60
2023-02-03T01:47:18.579Z,4.78
2023-02-03T01:49:54.118Z,3.80
2023-02-03T01:52:23.117Z,4.20
2023-02-03T01:54:56.586Z,4.20
2023-02-03T01:57:32.890Z,4.38
2023-02-03T02:00:04.382Z,4.00
2023-02-03T02:02:44.380Z,4.55
2023-02-03T02:05:20.492Z,4.15
2023-02-03T02:07:50.628Z,4.20
2023-02-03T02:12:51.316Z,4.20
2023-02-03T02:15:24.571Z,4.35
2023-02-03T02:18:12.328Z,4.10
2023-02-03T02:21:11.381Z,4.60
2023-02-03T02:24:18.144Z,4.15
2023-02-03T02:27:01.269Z,4.20
2023-02-03T02:30:09.281Z,4.75
2023-02-03T02:32:53.580Z,4.50
2023-02-03T02:35:33.938Z,5.35
2023-02-03T02:38:09.692Z,4.18
2023-02-03T02:40:47.974Z,4.85
2023-02-03T02:43:24.303Z,4.40
2023-02-03T02:45:55.856Z,4.50
2023-02-03T02:48:33.735Z,4.90
2023-02-03T02:51:06.491Z,4.53
2023-02-03T02:53:39.935Z,4.85
2023-02-03T02:56:11.945Z,5.13
2023-02-03T02:58:44.440Z,4.35
2023-02-03T03:01:14.483Z,4.45
2023-02-03T03:03:46.606Z,4.50
2023-02-03T03:06:21.281Z,4.38
2023-02-03T03:08:55.537Z,4.78
2023-02-03T03:11:26.729Z,4.70
2023-02-03T03:13:58.121Z,4.60
2023-02-03T03:16:30.996Z,4.80
2023-02-03T03:19:06.441Z,4.32
2023-02-03T03:21:41.612Z,4.55
2023-02-03T03:24:16.799Z,5.03
2023-02-03T03:26:51.776Z,4.65
2023-02-03T03:29:26.142Z,4.85
2023-02-03T03:31:56.036Z,4.78
2023-02-03T03:34:26.724Z,4.85
2023-02-03T03:39:35.938Z,4.65
2023-02-03T03:42:11.605Z,4.63
2023-02-03T03:44:46.443Z,4.70
2023-02-03T03:47:20.309Z,4.82
2023-02-03T03:49:54.758Z,4.53
2023-02-03T03:52:28.983Z,4.72
2023-02-03T03:55:00.682Z,4.32
2023-02-03T03:57:36.700Z,5.10
2023-02-03T04:00:10.219Z,4.07
2023-02-03T04:02:45.337Z,4.60
2023-02-03T04:05:16.482Z,4.68
2023-02-03T04:07:46.923Z,4.97
2023-02-03T04:10:24.969Z,4.57
2023-02-03T04:12:54.045Z,4.40
2023-02-03T04:15:23.314Z,4.57
2023-02-03T04:17:52.294Z,4.25
2023-02-03T04:20:23.138Z,4.32
2023-02-03T04:22:52.325Z,4.55
2023-02-03T04:25:21.603Z,4.70
2023-02-03T04:27:50.831Z,4.70
2023-02-03T04:30:20.174Z,4.10
2023-02-03T04:32:49.556Z,4.20
2023-02-03T04:35:18.974Z,4.28
2023-02-03T04:37:49.338Z,4.18
2023-02-03T04:40:19.352Z,3.90
2023-02-03T04:42:48.256Z,3.70
2023-02-03T04:45:17.449Z,4.13
2023-02-03T04:47:46.481Z,5.30
2023-02-03T04:50:15.667Z,7.70
2023-02-03T04:52:44.530Z,6.97
2023-02-03T04:55:15.148Z,5.53
2023-02-03T05:00:14.572Z,3.88
2023-02-03T05:05:12.447Z,3.33
2023-02-03T05:07:41.466Z,3.40
2023-02-03T05:10:11.630Z,2.95
2023-02-03T05:12:41.898Z,3.75
2023-02-03T05:15:11.760Z,4.40
2023-02-03T05:17:41.359Z,4.72
2023-02-03T05:20:11.787Z,5.22
2023-02-03T05:22:40.781Z,5.13
2023-02-03T05:25:10.918Z,5.43
2023-02-03T05:27:42.251Z,4.95
2023-02-03T05:30:12.791Z,4.63
2023-02-03T05:32:41.718Z,5.13
2023-02-03T05:35:10.875Z,5.22
2023-02-03T05:37:39.856Z,4.80
2023-02-03T05:40:28.056Z,5.47
2023-02-03T05:42:58.844Z,4.60
2023-02-03T05:45:28.027Z,4.35
2023-02-03T05:47:56.903Z,4.13
2023-02-03T05:50:27.260Z,4.03
2023-02-03T05:52:56.382Z,3.78
2023-02-03T05:55:43.327Z,4.35
2023-02-03T05:58:13.996Z,4.25
2023-02-03T06:00:42.883Z,4.30
2023-02-03T06:03:12.145Z,5.32
2023-02-03T06:05:41.415Z,5.55
2023-02-03T06:08:11.149Z,6.85
2023-02-03T06:10:40.032Z,7.20
2023-02-03T06:13:15.491Z,7.60
2023-02-03T06:15:45.215Z,8.10
2023-02-03T06:18:15.436Z,8.50
2023-02-03T06:23:13.776Z,8.10
2023-02-03T06:25:42.938Z,8.93
2023-02-03T06:28:13.597Z,8.75
2023-02-03T06:33:11.666Z,8.68
2023-02-03T06:35:40.735Z,7.40
2023-02-03T06:38:10.015Z,7.78
2023-02-03T06:40:38.960Z,8.32
2023-02-03T06:43:08.316Z,8.45
2023-02-03T06:45:38.601Z,7.05
2023-02-03T06:48:08.840Z,7.20
2023-02-03T06:50:37.765Z,6.90
2023-02-03T06:53:06.931Z,6.65
2023-02-03T06:55:36.047Z,6.82
2023-02-03T06:58:05.223Z,6.28
2023-02-03T07:00:34.165Z,6.40
2023-02-03T07:03:05.026Z,6.13
2023-02-03T07:05:35.985Z,6.88
2023-02-03T07:08:05.440Z,6.78
2023-02-03T07:10:34.282Z,6.47
2023-02-03T07:13:07.602Z,7.18
2023-02-03T07:15:36.824Z,6.68
2023-02-03T07:18:07.509Z,9.32
2023-02-03T07:20:36.393Z,9.73
2023-02-03T07:23:05.556Z,7.38
2023-02-03T07:25:34.597Z,8.05
2023-02-03T07:28:04.225Z,8.95
2023-02-03T07:30:33.187Z,7.67
2023-02-03T07:33:02.590Z,7.70
2023-02-03T07:35:32.922Z,7.78
2023-02-03T07:38:02.112Z,7.00
2023-02-03T07:40:31.066Z,6.57
2023-02-03T07:43:00.324Z,6.60
2023-02-03T07:45:29.254Z,6.25
2023-02-03T07:47:58.437Z,7.10
2023-02-03T07:50:27.595Z,6.57
2023-02-03T07:52:58.241Z,6.15
2023-02-03T07:55:27.568Z,7.65
2023-02-03T07:57:57.119Z,7.03
2023-02-03T08:00:27.093Z,7.30
2023-02-03T08:02:56.509Z,6.35
2023-02-03T08:05:25.461Z,7.20
2023-02-03T08:07:54.641Z,6.78
2023-02-03T08:10:24.960Z,7.53
2023-02-03T08:12:55.216Z,6.05
2023-02-03T08:15:24.529Z,5.65
2023-02-03T08:17:54.103Z,6.03
2023-02-03T08:20:23.317Z,6.85
2023-02-03T08:22:53.597Z,6.80
2023-02-03T08:25:23.949Z,6.80
2023-02-03T08:27:53.919Z,6.80
2023-02-03T08:30:24.070Z,6.90
2023-02-03T08:32:53.354Z,6.57
2023-02-03T08:35:22.272Z,6.82
2023-02-03T08:37:51.481Z,6.60
2023-02-03T08:40:40.355Z,6.75
2023-02-03T08:43:09.852Z,7.15
2023-02-03T08:45:40.091Z,7.00
2023-02-03T08:48:09.351Z,6.88
2023-02-03T08:50:38.569Z,6.70
2023-02-03T08:53:07.809Z,6.93
2023-02-03T08:55:39.424Z,6.60
2023-02-03T08:58:10.039Z,6.95
2023-02-03T09:00:38.996Z,6.50
2023-02-03T09:03:08.190Z,6.63
2023-02-03T09:05:37.891Z,7.05
2023-02-03T09:08:07.608Z,7.13
2023-02-03T09:10:37.089Z,7.17
2023-02-03T09:13:06.273Z,7.88
2023-02-03T09:15:36.782Z,7.78
2023-02-03T09:18:07.607Z,8.32
2023-02-03T09:20:36.507Z,7.35
2023-02-03T09:23:05.743Z,6.57
2023-02-03T09:25:35.153Z,7.55
2023-02-03T09:28:04.604Z,7.35
2023-02-03T09:30:35.215Z,7.47
2023-02-03T09:33:04.540Z,7.38
2023-02-03T09:35:33.423Z,7.88
2023-02-03T09:38:02.660Z,7.03
2023-02-03T09:40:36.332Z,7.10
2023-02-03T09:43:23.236Z,7.50
2023-02-03T09:45:53.563Z,7.15
2023-02-03T09:48:28.923Z,8.07
2023-02-03T09:50:58.109Z,7.70
2023-02-03T09:53:38.578Z,7.53
2023-02-03T09:56:07.515Z,7.88
2023-02-03T09:58:36.715Z,8.90
2023-02-03T10:01:13.440Z,8.07
2023-02-03T10:03:52.352Z,7.18
2023-02-03T10:06:32.694Z,7.93
2023-02-03T10:09:19.972Z,7.22
2023-02-03T10:12:01.487Z,7.60
2023-02-03T10:14:46.229Z,7.40
2023-02-03T10:17:30.249Z,8.02
2023-02-03T10:20:05.252Z,7.88
2023-02-03T10:22:39.209Z,9.10
2023-02-03T10:25:17.780Z,9.52
2023-02-03T10:27:48.809Z,9.45
2023-02-03T10:30:22.459Z,9.15
2023-02-03T10:32:55.475Z,9.80
2023-02-03T10:35:34.309Z,10.55
2023-02-03T10:38:04.692Z,10.38
2023-02-03T10:40:34.044Z,11.77
2023-02-03T10:43:19.600Z,10.68
2023-02-03T10:45:48.877Z,11.18
2023-02-03T10:48:20.848Z,11.07
2023-02-03T10:50:51.488Z,9.95
2023-02-03T10:53:26.461Z,10.75
2023-02-03T10:56:05.728Z,12.10
2023-02-03T10:58:35.560Z,10.35
2023-02-03T11:01:11.441Z,11.27
2023-02-03T11:03:44.557Z,10.80
2023-02-03T11:06:15.887Z,10.77
2023-02-03T11:08:46.623Z,10.15
2023-02-03T11:11:17.048Z,9.93
2023-02-03T11:13:46.000Z,9.70
2023-02-03T11:16:18.346Z,10.43
2023-02-03T11:18:55.662Z,10.13
2023-02-03T11:21:28.459Z,10.32
2023-02-03T11:24:03.624Z,9.35
2023-02-03T11:26:55.628Z,8.95
2023-02-03T11:29:28.415Z,8.82
2023-02-03T11:32:00.719Z,8.50
2023-02-03T11:34:34.664Z,8.55
2023-02-03T11:37:27.511Z,9.65
2023-02-03T11:39:58.375Z,9.30
2023-02-03T11:42:27.288Z,9.32
2023-02-03T11:45:16.130Z,9.00
2023-02-03T11:47:48.084Z,9.18
2023-02-03T11:50:30.824Z,9.30
2023-02-03T11:53:24.973Z,9.80
2023-02-03T11:56:14.047Z,9.52
2023-02-03T11:59:10.058Z,9.38
2023-02-03T12:02:07.499Z,9.82
2023-02-03T12:05:05.450Z,9.00
2023-02-03T12:07:53.001Z,8.88
2023-02-03T12:10:32.766Z,8.43
2023-02-03T12:13:13.734Z,8.48
2023-02-03T12:16:02.066Z,9.25
2023-02-03T12:18:46.081Z,8.38
2023-02-03T12:21:40.609Z,9.30
2023-02-03T12:24:27.610Z,9.85
2023-02-03T12:27:07.305Z,10.13
2023-02-03T12:29:43.318Z,10.05
2023-02-03T12:32:21.156Z,10.73
2023-02-03T12:34:55.261Z,11.05
2023-02-03T12:37:49.480Z,9.73
2023-02-03T12:40:26.309Z,10.95
2023-02-03T12:43:00.154Z,10.43
2023-02-03T12:45:33.766Z,10.55
2023-02-03T12:48:08.013Z,11.88
2023-02-03T12:50:41.942Z,11.68
2023-02-03T12:53:17.782Z,11.20
2023-02-03T12:55:55.246Z,10.82
2023-02-03T12:58:29.573Z,10.90
2023-02-03T13:01:04.826Z,11.48
2023-02-03T13:03:40.209Z,11.23
2023-02-03T13:06:17.436Z,10.52
2023-02-03T13:08:57.249Z,9.70
2023-02-03T13:11:34.869Z,10.00
2023-02-03T13:14:13.574Z,10.98
2023-02-03T13:16:47.203Z,11.60
2023-02-03T13:19:22.923Z,10.10
2023-02-03T13:21:52.921Z,9.93
2023-02-03T13:24:26.201Z,10.57
2023-02-03T13:27:23.115Z,10.13
2023-02-03T13:30:12.579Z,10.40
2023-02-03T13:33:00.750Z,9.10
2023-02-03T13:35:43.320Z,8.27
2023-02-03T13:38:38.473Z,9.00
2023-02-03T13:41:11.706Z,8.80
2023-02-03T13:43:47.451Z,8.43
2023-02-03T13:46:24.628Z,8.32
2023-02-03T13:48:55.699Z,9.73
2023-02-03T13:51:29.198Z,8.45
2023-02-03T13:54:04.076Z,7.35
2023-02-03T13:56:33.702Z,8.13
2023-02-03T13:59:29.360Z,8.23
2023-02-03T14:02:50.799Z,9.02
2023-02-03T14:05:42.158Z,8.63
2023-02-03T14:08:53.993Z,9.63
2023-02-03T14:11:43.208Z,11.10
2023-02-03T14:14:45.860Z,10.35
2023-02-03T14:17:58.682Z,11.15
2023-02-03T14:21:21.846Z,12.73
2023-02-03T14:24:13.254Z,12.60
2023-02-03T14:26:44.882Z,12.85
2023-02-03T14:29:27.758Z,12.85
2023-02-03T14:32:00.582Z,13.77
2023-02-03T14:34:36.739Z,12.90
2023-02-03T14:37:22.964Z,14.25
2023-02-03T14:40:22.459Z,13.05
2023-02-03T14:43:25.381Z,14.05
2023-02-03T14:46:17.960Z,13.45
2023-02-03T14:49:18.433Z,13.35
2023-02-03T14:52:01.730Z,12.27
2023-02-03T14:54:47.291Z,12.43
2023-02-03T14:57:31.007Z,11.35
2023-02-03T15:00:03.387Z,12.10
2023-02-03T15:02:34.423Z,11.88
2023-02-03T15:05:40.916Z,12.88
2023-02-03T15:08:48.982Z,11.02
2023-02-03T15:11:29.858Z,12.05
2023-02-03T15:14:17.632Z,11.38
2023-02-03T15:16:58.341Z,11.40
2023-02-03T15:19:30.817Z,12.30
2023-02-03T15:22:01.720Z,10.82
2023-02-03T15:24:38.167Z,12.00
2023-02-03T15:27:21.162Z,11.85
2023-02-03T15:29:50.413Z,11.43
2023-02-03T15:32:28.943Z,12.80
2023-02-03T15:35:01.200Z,13.18
2023-02-03T15:37:37.272Z,12.40
2023-02-03T15:40:13.607Z,12.93
2023-02-03T15:42:52.880Z,12.25
2023-02-03T15:45:28.592Z,12.10
2023-02-03T15:48:03.101Z,11.65
2023-02-03T15:50:37.944Z,12.60
2023-02-03T15:53:15.295Z,10.40
2023-02-03T15:55:48.419Z,9.35
2023-02-03T15:58:21.517Z,10.73
2023-02-03T16:00:53.854Z,9.82
2023-02-03T16:03:29.181Z,9.77
2023-02-03T16:06:00.503Z,10.18
2023-02-03T16:08:46.156Z,10.50
2023-02-03T16:11:39.763Z,10.55
2023-02-03T16:14:11.774Z,9.38
2023-02-03T16:16:55.354Z,9.80
2023-02-03T16:19:32.458Z,7.82
2023-02-03T16:22:02.469Z,8.27
2023-02-03T16:24:40.343Z,9.25
2023-02-03T16:27:23.037Z,9.00
2023-02-03T16:30:09.634Z,7.88
2023-02-03T16:32:56.711Z,7.47
2023-02-03T16:35:43.071Z,8.30
2023-02-03T16:38:36.199Z,8.30
2023-02-03T16:41:34.833Z,7.28
2023-02-03T16:44:21.355Z,7.72
2023-02-03T16:47:08.259Z,9.07
2023-02-03T16:49:56.355Z,8.38
2023-02-03T16:52:27.083Z,7.32
2023-02-03T16:54:56.394Z,7.82
2023-02-03T16:57:26.833Z,11.32
2023-02-03T16:59:56.163Z,8.40
2023-02-03T17:02:25.467Z,7.57
2023-02-03T17:04:55.190Z,7.45
2023-02-03T17:07:24.055Z,7.20
2023-02-03T17:09:53.398Z,7.13
2023-02-03T17:12:22.588Z,6.63
2023-02-03T17:14:55.560Z,6.78
2023-02-03T17:17:25.696Z,6.00
2023-02-03T17:19:57.047Z,6.45
2023-02-03T17:22:27.105Z,6.25
2023-02-03T17:24:56.400Z,6.05
2023-02-03T17:27:25.313Z,6.35
2023-02-03T17:29:55.917Z,6.43
2023-02-03T17:32:24.994Z,6.35
2023-02-03T17:34:55.453Z,6.80
2023-02-03T17:37:24.875Z,7.25
2023-02-03T17:54:00.962Z,7.43
2023-02-03T17:56:30.760Z,6.75
2023-02-03T17:59:01.298Z,7.20
2023-02-03T18:01:32.223Z,6.82
2023-02-03T18:04:05.312Z,7.05
2023-02-03T18:06:36.018Z,6.45
2023-02-03T18:09:06.743Z,7.38
2023-02-03T18:11:37.540Z,6.55
2023-02-03T18:14:07.182Z,6.60
2023-02-03T18:16:39.141Z,7.18
2023-02-03T18:19:10.520Z,7.20
2023-02-03T18:21:40.383Z,6.75
2023-02-03T18:24:12.025Z,7.95
2023-02-03T18:26:49.449Z,7.20
2023-02-03T18:29:19.033Z,8.82
2023-02-03T18:31:50.487Z,8.18
2023-02-03T18:34:19.884Z,7.95
2023-02-03T18:36:49.218Z,7.63
2023-02-03T18:39:18.177Z,7.57
2023-02-03T18:41:47.511Z,7.80
2023-02-03T18:44:16.461Z,8.13
2023-02-03T18:46:45.728Z,7.53
2023-02-03T18:49:16.171Z,8.40
2023-02-03T18:51:45.543Z,7.63
2023-02-03T18:54:14.791Z,8.27
2023-02-03T18:56:44.130Z,7.07
2023-02-03T18:59:13.368Z,7.07
2023-02-03T19:01:46.628Z,7.82
2023-02-03T19:04:17.290Z,8.00
2023-02-03T19:06:47.784Z,7.82
2023-02-03T19:09:19.392Z,8.27
2023-02-03T19:11:48.937Z,7.95
2023-02-03T19:14:18.144Z,6.50
2023-02-03T19:16:50.423Z,8.30
2023-02-03T19:19:22.066Z,7.30
2023-02-03T19:21:52.059Z,7.28
2023-02-03T19:24:22.859Z,7.00
2023-02-03T19:26:52.271Z,6.68
2023-02-03T19:29:21.350Z,6.82
2023-02-03T19:31:51.250Z,7.00
2023-02-03T19:34:21.792Z,7.07
2023-02-03T19:36:52.652Z,6.72
2023-02-03T19:39:22.114Z,6.05
2023-02-03T19:41:51.246Z,5.40
2023-02-03T19:44:20.318Z,5.22
2023-02-03T19:46:49.733Z,5.30
2023-02-03T19:49:21.325Z,5.13
2023-02-03T19:51:51.751Z,4.88
2023-02-03T19:54:20.870Z,4.80
2023-02-03T19:56:50.000Z,6.00
2023-02-03T19:59:19.234Z,6.53
2023-02-03T20:01:49.904Z,6.07
2023-02-03T20:04:20.885Z,6.20
2023-02-03T20:06:50.106Z,6.53
2023-02-03T20:09:19.022Z,5.00
2023-02-03T20:11:49.854Z,5.80
2023-02-03T20:14:19.583Z,6.28
2023-02-03T20:16:51.211Z,5.53
2023-02-03T20:19:22.052Z,6.53
2023-02-03T20:21:51.331Z,5.18
2023-02-03T20:24:20.284Z,6.22
2023-02-03T20:26:49.687Z,6.18
2023-02-03T20:29:18.603Z,5.95
2023-02-03T20:31:47.839Z,5.63
2023-02-03T20:34:16.909Z,4.90
2023-02-03T20:36:47.576Z,5.03
2023-02-03T20:39:20.099Z,4.53
2023-02-03T20:41:49.983Z,4.93
2023-02-03T20:44:19.286Z,5.30
2023-02-03T20:46:48.577Z,5.07
2023-02-03T20:49:19.528Z,5.60
2023-02-03T20:51:50.576Z,8.10
2023-02-03T20:54:21.616Z,6.38
2023-02-03T20:56:51.765Z,5.72
2023-02-03T20:59:21.627Z,4.95
2023-02-03T21:01:51.252Z,5.60
2023-02-03T21:04:38.447Z,5.55
2023-02-03T21:07:18.443Z,4.40
2023-02-03T21:09:47.461Z,4.68
2023-02-03T21:12:16.640Z,5.25
2023-02-03T21:14:49.191Z,4.70
2023-02-03T21:17:21.063Z,4.88
2023-02-03T21:19:50.656Z,5.40
2023-02-03T21:22:23.895Z,5.50
2023-02-03T21:24:54.764Z,5.97
2023-02-03T21:27:29.810Z,5.90
2023-02-03T21:30:00.160Z,5.43
2023-02-03T21:32:38.196Z,5.63
2023-02-03T21:35:25.368Z,6.10
2023-02-03T21:38:01.837Z,5.95
2023-02-03T21:40:32.852Z,6.68
2023-02-03T21:43:03.420Z,6.38
2023-02-03T21:48:28.362Z,5.47
2023-02-03T21:50:58.050Z,6.10
2023-02-03T21:53:35.462Z,7.20
2023-02-03T21:56:19.363Z,4.82
2023-02-03T21:58:50.704Z,5.07
2023-02-03T22:01:23.030Z,7.68
2023-02-03T22:03:53.774Z,5.78
2023-02-03T22:08:56.341Z,5.22
2023-02-03T22:11:29.392Z,6.10
2023-02-03T22:13:58.971Z,6.35
2023-02-03T22:16:28.998Z,13.25
2023-02-03T22:21:27.003Z,6.03
2023-02-03T22:23:57.582Z,6.63
2023-02-03T22:26:26.512Z,7.22
2023-02-03T22:28:55.934Z,6.65
2023-02-03T22:31:24.905Z,6.20
2023-02-03T22:33:54.162Z,6.90
2023-02-03T22:36:23.468Z,8.02
2023-02-03T22:38:52.990Z,4.40
2023-02-03T22:41:23.204Z,4.50
2023-02-03T22:43:52.298Z,7.22
2023-02-03T22:46:21.071Z,4.47
2023-02-03T22:48:50.218Z,3.38
2023-02-03T22:51:18.996Z,5.00
2023-02-03T22:53:48.187Z,4.45
2023-02-03T22:56:16.957Z,4.80
2023-02-03T22:58:47.533Z,3.17
2023-02-03T23:01:16.314Z,3.75
2023-02-03T23:07:53.184Z,2.85
2023-02-03T23:10:25.025Z,3.30
2023-02-03T23:12:54.679Z,3.17
2023-02-03T23:15:25.795Z,4.50
2023-02-03T23:17:55.218Z,6.68
2023-02-03T23:23:11.128Z,4.05
2023-02-03T23:25:40.247Z,2.30
2023-02-03T23:28:27.589Z,2.33
2023-02-03T23:30:58.339Z,2.08
2023-02-03T23:33:27.958Z,2.22
2023-02-03T23:35:56.089Z,2.45
2023-02-03T23:38:25.800Z,1.50
2023-02-03T23:40:56.070Z,1.40
2023-02-03T23:43:25.625Z,1.00
2023-02-03T23:45:54.743Z,1.38
2023-02-03T23:48:25.764Z,1.70
2023-02-03T23:50:54.953Z,1.30
2023-02-03T23:53:24.568Z,1.13
2023-02-03T23:55:53.847Z,2.10
2023-02-03T23:58:23.357Z,1.20
